KCSV/CSV METAR and TAF weather

Enter ICAO airport designator
Station Type Date Time Source
KCSV METAR 2018/10/16 19:53 UTC NOAA

KCSV 161953Z AUTO 00000KT 10SM OVC008 14/12 A3018 RMK AO2 SLP213 T01440117


Station Type Date Time Source
KCSV Decoded METAR 2018/10/16 19:53 UTC NOAA

CROSSVILLE MEMORIAL AIRPORT , TN, United States (KCSV) 35-57N 85-05W 570M
Oct 16, 2018 - 03:53 PM EDT / 2018.10.16 1953 UTC
Wind: Calm:0
Visibility: 10 mile(s):0
Sky conditions: overcast
Temperature: 57.9 F (14.4 C)
Dew Point: 53.1 F (11.7 C)
Relative Humidity: 83%
Pressure (altimeter): 30.18 in. Hg (1022 hPa)
ob: KCSV 161953Z AUTO 00000KT 10SM OVC008 14/12 A3018 RMK AO2 SLP213 T01440117
cycle: 20

Station Type Date Time Source
KCSV TAF 2018/10/16 20:30 UTC NOAA

TAF
AMD KCSV 162026Z 1620/1718 33003KT P6SM -SHRA OVC008
FM170400 34003KT P6SM BKN004 OVC008
FM171000 35005KT P6SM SCT010 SCT250


Example: see airport list